LGKO Airport Information

Runway Information
Runway 14 Length 7841 ft width 148 ft
Elevation 412 ft Threshold 0 ft Heading 148
Runway 32 Length 7841 ft Width 148 ft
Elevation 373 ft Threshold 0 ft Heading 328
Airport Frequencies
Type A/G Name IPPOKRATIS Frequency 563.7 MHZ
Type APP Name APP Frequency 119.95 MHZ
Type ATIS Name ATIS Frequency 126.95 MHZ
Type TWR Name IPPOKRATIS Frequency 121.05 MHZ
Airport Navaids
Type VOR-DME Name Kos Frequency 109000 KHZ
Type NDB Name Kos Frequency 311 KHZ
Airport Weather Information & NOTAM
ADDS - METARS form results

(1109 UTC 22 September 2020)
Data provider http://aviationweather.gov/metar/data/
 
METAR text: LGKO 221050Z 30011KT CAVOK 27/19 Q1015
Conditions at: LGKO (KOS AIRPORT , GR) observed 1050 UTC 22 September 2020
Temperature: 27.0°C (81°F)
Dewpoint: 19.0°C (66°F) [RH = 62%]
Pressure (altimeter): 29.97 inches Hg (1015.0 mb)
Winds: from the WNW (300 degrees) at 13 MPH (11 knots; 5.7 m/s)
Visibility: 6 or more miles (10+ km)
Ceiling: ceiling and visibility are OK
Clouds: unknown
Weather: no significant weather observed at this time

METAR text: LGKO 221020Z 33008KT CAVOK 28/19 Q1015
Conditions at: LGKO (KOS AIRPORT , GR) observed 1020 UTC 22 September 2020
Temperature: 28.0°C (82°F)
Dewpoint: 19.0°C (66°F) [RH = 58%]
Pressure (altimeter): 29.97 inches Hg (1015.0 mb)
Winds: from the NNW (330 degrees) at 9 MPH (8 knots; 4.1 m/s)
Visibility: 6 or more miles (10+ km)
Ceiling: ceiling and visibility are OK
Clouds: unknown
Weather: no significant weather observed at this time

Forecast for: LGKO (KOS AIRPORT , GR)
Text: TAF LGKO 220500Z 2206/2306 34014KT 9999 FEW020
Forecast period: 0600 UTC 22 September 2020 to 0600 UTC 23 September 2020
Forecast type: FROM: standard forecast or significant change
Winds: from the NNW (340 degrees) at 16 MPH (14 knots; 7.2 m/s)
Visibility: 6 or more miles (10+ km)
Ceiling: at least 12,000 feet AGL
Clouds: few clouds at 2000 feet AGL
Weather: no significant weather forecast for this period